Terminal Aerodrome Forecast
Issued by NWS Des Moines, IA

Home | Current Version | Previous Version | Text Only | Print | Product List | Glossary On
Versions: 1 2 3 4 5 6 7 8 9 10 11 12 13 14 15 16 17 18 19 20 21 22 23 24 25 26 27 28 29 30 31 32 33 34 35 36 37 38 39 40 41 42 43 44 45 46 47 48 49 50
000
FTUS43 KDMX 251919 AAA
TAFALO
TAF AMD
KALO 251919Z 2519/2618 21014G22KT P6SM SCT035 BKN050
     FM260100 19012KT P6SM VCSH BKN070
     FM260300 20011KT P6SM VCTS BKN040CB
     FM260800 19006KT 6SM -RA BR BKN030
     FM261200 17006KT P6SM BKN050=

USA.gov is the U.S. government's official web portal to all federal, state and local government web resources and services.